sensor_id;sensor_type;location;lat;lon;timestamp;temperature;humidity
2012;DHT22;1009;51.436;6.972;2023-04-01T00:01:44;9.60;99.90
2012;DHT22;1009;51.436;6.972;2023-04-01T00:04:11;9.70;99.90
2012;DHT22;1009;51.436;6.972;2023-04-01T00:06:37;9.70;99.90
2012;DHT22;1009;51.436;6.972;2023-04-01T00:09:04;9.70;99.90
2012;DHT22;1009;51.436;6.972;2023-04-01T00:11:32;9.70;99.90
2012;DHT22;1009;51.436;6.972;2023-04-01T00:14:08;9.80;99.90
2012;DHT22;1009;51.436;6.972;2023-04-01T00:16:37;9.70;99.90
2012;DHT22;1009;51.436;6.972;2023-04-01T00:19:03;9.70;99.90
2012;DHT22;1009;51.436;6.972;2023-04-01T00:21:32;9.70;99.90
2012;DHT22;1009;51.436;6.972;2023-04-01T00:23:59;9.80;99.90
2012;DHT22;1009;51.436;6.972;2023-04-01T00:26:26;9.80;99.90
2012;DHT22;1009;51.436;6.972;2023-04-01T00:28:53;9.70;99.90
2012;DHT22;1009;51.436;6.972;2023-04-01T00:31:24;9.70;99.90
2012;DHT22;1009;51.436;6.972;2023-04-01T00:33:51;9.70;99.90
2012;DHT22;1009;51.436;6.972;2023-04-01T00:36:20;9.60;99.90
2012;DHT22;1009;51.436;6.972;2023-04-01T00:38:49;9.70;99.90
2012;DHT22;1009;51.436;6.972;2023-04-01T00:41:17;9.70;99.90
2012;DHT22;1009;51.436;6.972;2023-04-01T00:43:46;9.60;99.90
2012;DHT22;1009;51.436;6.972;2023-04-01T00:46:13;9.60;99.90
2012;DHT22;1009;51.436;6.972;2023-04-01T00:48:44;9.60;99.90
2012;DHT22;1009;51.436;6.972;2023-04-01T00:51:15;9.60;99.90
2012;DHT22;1009;51.436;6.972;2023-04-01T00:53:45;9.60;99.90
2012;DHT22;1009;51.436;6.972;2023-04-01T00:56:16;9.70;99.90
2012;DHT22;1009;51.436;6.972;2023-04-01T00:58:47;9.60;99.90
2012;DHT22;1009;51.436;6.972;2023-04-01T01:01:15;9.60;99.90
2012;DHT22;1009;51.436;6.972;2023-04-01T01:03:43;9.60;99.90
2012;DHT22;1009;51.436;6.972;2023-04-01T01:06:19;9.60;99.90
2012;DHT22;1009;51.436;6.972;2023-04-01T01:09:10;9.60;99.90
2012;DHT22;1009;51.436;6.972;2023-04-01T01:11:42;9.60;99.90
2012;DHT22;1009;51.436;6.972;2023-04-01T01:14:19;9.50;99.90
2012;DHT22;1009;51.436;6.972;2023-04-01T01:16:51;9.60;99.90
2012;DHT22;1009;51.436;6.972;2023-04-01T01:19:42;9.60;99.90
2012;DHT22;1009;51.436;6.972;2023-04-01T01:22:36;9.60;99.90
2012;DHT22;1009;51.436;6.972;2023-04-01T01:25:18;9.60;99.90
2012;DHT22;1009;51.436;6.972;2023-04-01T01:27:54;9.70;99.90
2012;DHT22;1009;51.436;6.972;2023-04-01T01:30:38;9.60;99.90
2012;DHT22;1009;51.436;6.972;2023-04-01T01:33:20;9.60;99.90
2012;DHT22;1009;51.436;6.972;2023-04-01T01:35:53;9.60;99.90
2012;DHT22;1009;51.436;6.972;2023-04-01T01:38:24;9.60;99.90
2012;DHT22;1009;51.436;6.972;2023-04-01T01:40:52;9.60;99.90
2012;DHT22;1009;51.436;6.972;2023-04-01T01:43:24;9.60;99.90
2012;DHT22;1009;51.436;6.972;2023-04-01T01:45:55;9.60;99.90
2012;DHT22;1009;51.436;6.972;2023-04-01T01:48:24;9.60;99.90
2012;DHT22;1009;51.436;6.972;2023-04-01T01:50:54;9.60;99.90
2012;DHT22;1009;51.436;6.972;2023-04-01T01:53:21;9.60;99.90
2012;DHT22;1009;51.436;6.972;2023-04-01T01:55:48;9.60;99.90
2012;DHT22;1009;51.436;6.972;2023-04-01T01:58:19;9.60;99.90
2012;DHT22;1009;51.436;6.972;2023-04-01T02:00:51;9.60;99.90
2012;DHT22;1009;51.436;6.972;2023-04-01T02:03:21;9.60;99.90
2012;DHT22;1009;51.436;6.972;2023-04-01T02:05:50;9.60;99.90
2012;DHT22;1009;51.436;6.972;2023-04-01T02:08:23;9.60;99.90
2012;DHT22;1009;51.436;6.972;2023-04-01T02:10:56;9.60;99.90
2012;DHT22;1009;51.436;6.972;2023-04-01T02:13:27;9.60;99.90
2012;DHT22;1009;51.436;6.972;2023-04-01T02:15:59;9.60;99.90
2012;DHT22;1009;51.436;6.972;2023-04-01T02:18:28;9.60;99.90
2012;DHT22;1009;51.436;6.972;2023-04-01T02:21:00;9.60;99.90
2012;DHT22;1009;51.436;6.972;2023-04-01T02:23:28;9.60;99.90
2012;DHT22;1009;51.436;6.972;2023-04-01T02:25:57;9.60;99.90
2012;DHT22;1009;51.436;6.972;2023-04-01T02:28:28;9.60;99.90
2012;DHT22;1009;51.436;6.972;2023-04-01T02:30:56;9.60;99.90
2012;DHT22;1009;51.436;6.972;2023-04-01T02:33:24;9.60;99.90
2012;DHT22;1009;51.436;6.972;2023-04-01T02:35:51;9.60;99.90
2012;DHT22;1009;51.436;6.972;2023-04-01T02:38:17;9.50;99.90
2012;DHT22;1009;51.436;6.972;2023-04-01T02:40:48;9.60;99.90
2012;DHT22;1009;51.436;6.972;2023-04-01T02:43:15;9.60;99.90
2012;DHT22;1009;51.436;6.972;2023-04-01T02:45:43;9.50;99.90
2012;DHT22;1009;51.436;6.972;2023-04-01T02:48:10;9.50;99.90
2012;DHT22;1009;51.436;6.972;2023-04-01T02:50:38;9.60;99.90
2012;DHT22;1009;51.436;6.972;2023-04-01T02:53:05;9.60;99.90
2012;DHT22;1009;51.436;6.972;2023-04-01T02:55:32;9.60;99.90
2012;DHT22;1009;51.436;6.972;2023-04-01T02:58:01;9.60;99.90
2012;DHT22;1009;51.436;6.972;2023-04-01T03:00:27;9.60;99.90
2012;DHT22;1009;51.436;6.972;2023-04-01T03:02:55;9.60;99.90
2012;DHT22;1009;51.436;6.972;2023-04-01T03:05:22;9.60;99.90
2012;DHT22;1009;51.436;6.972;2023-04-01T03:07:48;9.70;99.90
2012;DHT22;1009;51.436;6.972;2023-04-01T03:10:15;9.60;99.90
2012;DHT22;1009;51.436;6.972;2023-04-01T03:12:42;9.70;99.90
2012;DHT22;1009;51.436;6.972;2023-04-01T03:15:11;9.70;99.90
2012;DHT22;1009;51.436;6.972;2023-04-01T03:17:40;9.60;99.90
2012;DHT22;1009;51.436;6.972;2023-04-01T03:20:08;9.60;99.90
2012;DHT22;1009;51.436;6.972;2023-04-01T03:22:36;9.60;99.90
2012;DHT22;1009;51.436;6.972;2023-04-01T03:25:03;9.60;99.90
2012;DHT22;1009;51.436;6.972;2023-04-01T03:27:30;9.50;99.90
2012;DHT22;1009;51.436;6.972;2023-04-01T03:29:57;9.50;99.90
2012;DHT22;1009;51.436;6.972;2023-04-01T03:32:25;9.50;99.90
2012;DHT22;1009;51.436;6.972;2023-04-01T03:34:52;9.50;99.90
2012;DHT22;1009;51.436;6.972;2023-04-01T03:37:19;9.50;99.90
2012;DHT22;1009;51.436;6.972;2023-04-01T03:39:46;9.50;99.90
2012;DHT22;1009;51.436;6.972;2023-04-01T03:42:13;9.50;99.90
2012;DHT22;1009;51.436;6.972;2023-04-01T03:44:40;9.50;99.90
2012;DHT22;1009;51.436;6.972;2023-04-01T03:47:06;9.50;99.90
2012;DHT22;1009;51.436;6.972;2023-04-01T03:49:38;9.50;99.90
2012;DHT22;1009;51.436;6.972;2023-04-01T03:52:08;9.50;99.90
2012;DHT22;1009;51.436;6.972;2023-04-01T03:54:36;9.50;99.90
2012;DHT22;1009;51.436;6.972;2023-04-01T03:57:02;9.50;99.90
2012;DHT22;1009;51.436;6.972;2023-04-01T03:59:29;9.40;99.90
2012;DHT22;1009;51.436;6.972;2023-04-01T04:01:56;9.40;99.90
2012;DHT22;1009;51.436;6.972;2023-04-01T04:04:23;9.40;99.90
2012;DHT22;1009;51.436;6.972;2023-04-01T04:06:51;9.40;99.90
2012;DHT22;1009;51.436;6.972;2023-04-01T04:09:18;9.40;99.90
2012;DHT22;1009;51.436;6.972;2023-04-01T04:11:45;9.40;99.90
2012;DHT22;1009;51.436;6.972;2023-04-01T04:14:11;9.50;99.90
2012;DHT22;1009;51.436;6.972;2023-04-01T04:16:38;9.50;99.90
2012;DHT22;1009;51.436;6.972;2023-04-01T04:19:05;9.50;99.90
2012;DHT22;1009;51.436;6.972;2023-04-01T04:21:32;9.50;99.90
2012;DHT22;1009;51.436;6.972;2023-04-01T04:24:01;9.60;99.90
2012;DHT22;1009;51.436;6.972;2023-04-01T04:26:29;9.50;99.90
2012;DHT22;1009;51.436;6.972;2023-04-01T04:28:56;9.50;99.90
2012;DHT22;1009;51.436;6.972;2023-04-01T04:31:24;9.50;99.90
2012;DHT22;1009;51.436;6.972;2023-04-01T04:33:52;9.50;99.90
2012;DHT22;1009;51.436;6.972;2023-04-01T04:36:19;9.50;99.90
2012;DHT22;1009;51.436;6.972;2023-04-01T04:38:46;9.50;99.90
2012;DHT22;1009;51.436;6.972;2023-04-01T04:41:16;9.50;99.90
2012;DHT22;1009;51.436;6.972;2023-04-01T04:43:49;9.60;99.90
2012;DHT22;1009;51.436;6.972;2023-04-01T04:46:16;9.50;99.90
2012;DHT22;1009;51.436;6.972;2023-04-01T04:48:50;9.50;99.90
2012;DHT22;1009;51.436;6.972;2023-04-01T04:51:22;9.50;99.90
2012;DHT22;1009;51.436;6.972;2023-04-01T04:53:50;9.50;99.90
2012;DHT22;1009;51.436;6.972;2023-04-01T04:56:20;9.50;99.90
2012;DHT22;1009;51.436;6.972;2023-04-01T04:58:47;9.50;99.90
2012;DHT22;1009;51.436;6.972;2023-04-01T05:01:15;9.50;99.90
2012;DHT22;1009;51.436;6.972;2023-04-01T05:03:42;9.50;99.90
2012;DHT22;1009;51.436;6.972;2023-04-01T05:06:12;9.50;99.90
2012;DHT22;1009;51.436;6.972;2023-04-01T05:08:39;9.50;99.90
2012;DHT22;1009;51.436;6.972;2023-04-01T05:11:09;9.50;99.90
2012;DHT22;1009;51.436;6.972;2023-04-01T05:13:38;9.50;99.90
2012;DHT22;1009;51.436;6.972;2023-04-01T05:16:08;9.50;99.90
2012;DHT22;1009;51.436;6.972;2023-04-01T05:18:35;9.50;99.90
2012;DHT22;1009;51.436;6.972;2023-04-01T05:21:03;9.50;99.90
2012;DHT22;1009;51.436;6.972;2023-04-01T05:23:31;9.50;99.90
2012;DHT22;1009;51.436;6.972;2023-04-01T05:25:58;9.50;99.90
2012;DHT22;1009;51.436;6.972;2023-04-01T05:28:25;9.50;99.90
2012;DHT22;1009;51.436;6.972;2023-04-01T05:30:53;9.60;99.90
2012;DHT22;1009;51.436;6.972;2023-04-01T05:33:20;9.50;99.90
2012;DHT22;1009;51.436;6.972;2023-04-01T05:35:47;9.50;99.90
2012;DHT22;1009;51.436;6.972;2023-04-01T05:38:14;9.60;99.90
2012;DHT22;1009;51.436;6.972;2023-04-01T05:40:40;9.50;99.90
2012;DHT22;1009;51.436;6.972;2023-04-01T05:43:07;9.60;99.90
2012;DHT22;1009;51.436;6.972;2023-04-01T05:45:34;9.50;99.90
2012;DHT22;1009;51.436;6.972;2023-04-01T05:48:02;9.60;99.90
2012;DHT22;1009;51.436;6.972;2023-04-01T05:50:29;9.50;99.90
2012;DHT22;1009;51.436;6.972;2023-04-01T05:52:56;9.50;99.90
2012;DHT22;1009;51.436;6.972;2023-04-01T05:55:23;9.60;99.90
2012;DHT22;1009;51.436;6.972;2023-04-01T05:57:50;9.60;99.90
2012;DHT22;1009;51.436;6.972;2023-04-01T06:00:17;9.50;99.90
2012;DHT22;1009;51.436;6.972;2023-04-01T06:02:45;9.50;99.90
2012;DHT22;1009;51.436;6.972;2023-04-01T06:05:16;9.60;99.90
2012;DHT22;1009;51.436;6.972;2023-04-01T06:07:43;9.60;99.90
2012;DHT22;1009;51.436;6.972;2023-04-01T06:10:13;9.60;99.90
2012;DHT22;1009;51.436;6.972;2023-04-01T06:12:47;9.60;99.90
2012;DHT22;1009;51.436;6.972;2023-04-01T06:15:25;9.60;99.90
2012;DHT22;1009;51.436;6.972;2023-04-01T06:18:21;9.60;99.90
2012;DHT22;1009;51.436;6.972;2023-04-01T06:20:58;9.60;99.90
2012;DHT22;1009;51.436;6.972;2023-04-01T06:23:45;9.60;99.90
2012;DHT22;1009;51.436;6.972;2023-04-01T06:26:25;9.50;99.90
2012;DHT22;1009;51.436;6.972;2023-04-01T06:32:08;9.60;99.90
2012;DHT22;1009;51.436;6.972;2023-04-01T06:34:54;9.60;99.90
2012;DHT22;1009;51.436;6.972;2023-04-01T06:38:00;9.50;99.90
2012;DHT22;1009;51.436;6.972;2023-04-01T06:40:51;9.50;99.90
2012;DHT22;1009;51.436;6.972;2023-04-01T06:43:25;9.50;99.90
2012;DHT22;1009;51.436;6.972;2023-04-01T06:45:58;9.60;99.90
2012;DHT22;1009;51.436;6.972;2023-04-01T06:48:40;9.60;99.90
2012;DHT22;1009;51.436;6.972;2023-04-01T06:51:21;9.60;99.90
2012;DHT22;1009;51.436;6.972;2023-04-01T06:53:54;9.60;99.90
2012;DHT22;1009;51.436;6.972;2023-04-01T06:56:25;9.60;99.90
2012;DHT22;1009;51.436;6.972;2023-04-01T06:58:55;9.60;99.90
2012;DHT22;1009;51.436;6.972;2023-04-01T07:01:26;9.70;99.90
2012;DHT22;1009;51.436;6.972;2023-04-01T07:03:57;9.60;99.90
2012;DHT22;1009;51.436;6.972;2023-04-01T07:06:28;9.60;99.90
2012;DHT22;1009;51.436;6.972;2023-04-01T07:08:59;9.60;99.90
2012;DHT22;1009;51.436;6.972;2023-04-01T07:11:31;9.60;99.90
2012;DHT22;1009;51.436;6.972;2023-04-01T07:14:01;9.60;99.90
2012;DHT22;1009;51.436;6.972;2023-04-01T07:16:31;9.60;99.90
2012;DHT22;1009;51.436;6.972;2023-04-01T07:19:02;9.60;99.90
2012;DHT22;1009;51.436;6.972;2023-04-01T07:21:33;9.60;99.90
2012;DHT22;1009;51.436;6.972;2023-04-01T07:24:06;9.60;99.90
2012;DHT22;1009;51.436;6.972;2023-04-01T07:26:36;9.70;99.90
2012;DHT22;1009;51.436;6.972;2023-04-01T07:29:05;9.70;99.90
2012;DHT22;1009;51.436;6.972;2023-04-01T07:31:50;9.70;99.90
2012;DHT22;1009;51.436;6.972;2023-04-01T07:34:23;9.70;99.90
2012;DHT22;1009;51.436;6.972;2023-04-01T07:36:54;9.80;99.90
2012;DHT22;1009;51.436;6.972;2023-04-01T07:39:36;9.70;99.90
2012;DHT22;1009;51.436;6.972;2023-04-01T07:42:15;9.80;99.90
2012;DHT22;1009;51.436;6.972;2023-04-01T07:44:54;9.80;99.90
2012;DHT22;1009;51.436;6.972;2023-04-01T07:47:34;9.70;99.90
2012;DHT22;1009;51.436;6.972;2023-04-01T07:50:16;9.80;99.90
2012;DHT22;1009;51.436;6.972;2023-04-01T07:52:49;9.80;99.90
2012;DHT22;1009;51.436;6.972;2023-04-01T07:55:24;9.70;99.90
2012;DHT22;1009;51.436;6.972;2023-04-01T07:58:01;9.80;99.90
2012;DHT22;1009;51.436;6.972;2023-04-01T08:00:36;9.70;99.90
2012;DHT22;1009;51.436;6.972;2023-04-01T08:03:23;9.60;99.90
2012;DHT22;1009;51.436;6.972;2023-04-01T08:05:58;9.60;99.90
2012;DHT22;1009;51.436;6.972;2023-04-01T08:08:36;9.70;99.90
2012;DHT22;1009;51.436;6.972;2023-04-01T08:11:15;9.70;99.90
2012;DHT22;1009;51.436;6.972;2023-04-01T08:13:53;9.70;99.90
2012;DHT22;1009;51.436;6.972;2023-04-01T08:16:28;9.70;99.90
2012;DHT22;1009;51.436;6.972;2023-04-01T08:19:04;9.80;99.90
2012;DHT22;1009;51.436;6.972;2023-04-01T08:21:41;9.70;99.90
2012;DHT22;1009;51.436;6.972;2023-04-01T08:24:17;9.70;99.90
2012;DHT22;1009;51.436;6.972;2023-04-01T08:26:49;9.70;99.90
2012;DHT22;1009;51.436;6.972;2023-04-01T08:29:21;9.70;99.90
2012;DHT22;1009;51.436;6.972;2023-04-01T08:31:51;9.80;99.90
2012;DHT22;1009;51.436;6.972;2023-04-01T08:34:23;9.70;99.90
2012;DHT22;1009;51.436;6.972;2023-04-01T08:36:52;9.80;99.90
2012;DHT22;1009;51.436;6.972;2023-04-01T08:39:28;9.80;99.90
2012;DHT22;1009;51.436;6.972;2023-04-01T08:42:17;9.80;99.90
2012;DHT22;1009;51.436;6.972;2023-04-01T08:45:18;9.80;99.90
2012;DHT22;1009;51.436;6.972;2023-04-01T08:48:01;9.90;99.90
2012;DHT22;1009;51.436;6.972;2023-04-01T08:51:03;9.80;99.90
2012;DHT22;1009;51.436;6.972;2023-04-01T08:53:43;9.80;99.90
2012;DHT22;1009;51.436;6.972;2023-04-01T08:56:17;9.90;99.90
2012;DHT22;1009;51.436;6.972;2023-04-01T09:02:10;9.90;99.90
2012;DHT22;1009;51.436;6.972;2023-04-01T09:07:46;9.90;99.90
2012;DHT22;1009;51.436;6.972;2023-04-01T09:10:29;10.00;99.90
2012;DHT22;1009;51.436;6.972;2023-04-01T09:13:18;10.00;99.90
2012;DHT22;1009;51.436;6.972;2023-04-01T09:15:59;10.00;99.90
2012;DHT22;1009;51.436;6.972;2023-04-01T09:19:03;10.00;99.90
2012;DHT22;1009;51.436;6.972;2023-04-01T09:24:40;10.00;99.90
2012;DHT22;1009;51.436;6.972;2023-04-01T09:27:19;9.90;99.90
2012;DHT22;1009;51.436;6.972;2023-04-01T09:33:42;10.00;99.90
2012;DHT22;1009;51.436;6.972;2023-04-01T09:36:20;10.10;99.90
2012;DHT22;1009;51.436;6.972;2023-04-01T09:38:56;10.10;99.90
2012;DHT22;1009;51.436;6.972;2023-04-01T09:41:30;10.20;99.90
2012;DHT22;1009;51.436;6.972;2023-04-01T09:44:04;10.20;99.90
2012;DHT22;1009;51.436;6.972;2023-04-01T09:46:50;10.30;99.90
2012;DHT22;1009;51.436;6.972;2023-04-01T09:49:42;10.30;99.90
2012;DHT22;1009;51.436;6.972;2023-04-01T09:52:20;10.30;99.90
2012;DHT22;1009;51.436;6.972;2023-04-01T09:55:00;10.30;99.90
2012;DHT22;1009;51.436;6.972;2023-04-01T10:01:00;10.30;99.90
2012;DHT22;1009;51.436;6.972;2023-04-01T10:04:11;10.40;99.90
2012;DHT22;1009;51.436;6.972;2023-04-01T10:13:01;10.40;99.90
2012;DHT22;1009;51.436;6.972;2023-04-01T10:19:03;10.50;99.90
2012;DHT22;1009;51.436;6.972;2023-04-01T10:24:55;10.50;99.90
2012;DHT22;1009;51.436;6.972;2023-04-01T10:27:40;10.60;99.90
2012;DHT22;1009;51.436;6.972;2023-04-01T10:30:37;10.60;99.90
2012;DHT22;1009;51.436;6.972;2023-04-01T10:39:34;10.50;99.90
2012;DHT22;1009;51.436;6.972;2023-04-01T10:42:35;10.60;99.90
2012;DHT22;1009;51.436;6.972;2023-04-01T10:45:34;10.50;99.90
2012;DHT22;1009;51.436;6.972;2023-04-01T10:48:33;10.50;99.90
2012;DHT22;1009;51.436;6.972;2023-04-01T10:51:20;10.60;99.90
2012;DHT22;1009;51.436;6.972;2023-04-01T10:56:57;10.50;99.90
2012;DHT22;1009;51.436;6.972;2023-04-01T10:59:50;10.50;99.90
2012;DHT22;1009;51.436;6.972;2023-04-01T11:05:42;10.40;99.90
2012;DHT22;1009;51.436;6.972;2023-04-01T11:08:51;10.30;99.90
2012;DHT22;1009;51.436;6.972;2023-04-01T11:15:06;10.40;99.90
2012;DHT22;1009;51.436;6.972;2023-04-01T11:18:09;10.40;99.90
2012;DHT22;1009;51.436;6.972;2023-04-01T11:20:52;10.40;99.90
2012;DHT22;1009;51.436;6.972;2023-04-01T11:23:42;10.40;99.90
2012;DHT22;1009;51.436;6.972;2023-04-01T11:26:28;10.40;99.90
2012;DHT22;1009;51.436;6.972;2023-04-01T11:29:28;10.40;99.90
2012;DHT22;1009;51.436;6.972;2023-04-01T11:32:04;10.50;99.90
2012;DHT22;1009;51.436;6.972;2023-04-01T11:34:48;10.50;99.90
2012;DHT22;1009;51.436;6.972;2023-04-01T11:37:25;10.50;99.90
2012;DHT22;1009;51.436;6.972;2023-04-01T11:40:06;10.50;99.90
2012;DHT22;1009;51.436;6.972;2023-04-01T11:42:40;10.50;99.90
2012;DHT22;1009;51.436;6.972;2023-04-01T11:45:34;10.60;99.90
2012;DHT22;1009;51.436;6.972;2023-04-01T11:48:32;10.70;99.90
2012;DHT22;1009;51.436;6.972;2023-04-01T11:51:18;10.80;99.90
2012;DHT22;1009;51.436;6.972;2023-04-01T11:53:56;10.80;99.90
2012;DHT22;1009;51.436;6.972;2023-04-01T11:56:46;10.80;99.90
2012;DHT22;1009;51.436;6.972;2023-04-01T11:59:38;10.70;99.90
2012;DHT22;1009;51.436;6.972;2023-04-01T12:02:16;10.70;99.90
2012;DHT22;1009;51.436;6.972;2023-04-01T12:04:58;10.80;99.90
2012;DHT22;1009;51.436;6.972;2023-04-01T12:07:39;10.70;99.90
2012;DHT22;1009;51.436;6.972;2023-04-01T12:10:17;10.70;99.90
2012;DHT22;1009;51.436;6.972;2023-04-01T12:12:52;10.80;99.90
2012;DHT22;1009;51.436;6.972;2023-04-01T12:15:29;10.80;99.90
2012;DHT22;1009;51.436;6.972;2023-04-01T12:18:05;10.70;99.90
2012;DHT22;1009;51.436;6.972;2023-04-01T12:20:50;10.70;99.90
2012;DHT22;1009;51.436;6.972;2023-04-01T12:23:36;10.70;99.90
2012;DHT22;1009;51.436;6.972;2023-04-01T12:26:21;10.70;99.90
2012;DHT22;1009;51.436;6.972;2023-04-01T12:29:04;10.80;99.90
2012;DHT22;1009;51.436;6.972;2023-04-01T12:31:40;10.80;99.90
2012;DHT22;1009;51.436;6.972;2023-04-01T12:37:14;10.90;99.90
2012;DHT22;1009;51.436;6.972;2023-04-01T12:46:17;10.70;99.90
2012;DHT22;1009;51.436;6.972;2023-04-01T12:49:10;10.70;99.90
2012;DHT22;1009;51.436;6.972;2023-04-01T12:52:02;10.70;99.90
2012;DHT22;1009;51.436;6.972;2023-04-01T13:00:31;10.70;99.90
2012;DHT22;1009;51.436;6.972;2023-04-01T13:03:15;10.70;99.90
2012;DHT22;1009;51.436;6.972;2023-04-01T13:06:18;10.60;99.90
2012;DHT22;1009;51.436;6.972;2023-04-01T13:08:50;10.70;99.90
2012;DHT22;1009;51.436;6.972;2023-04-01T13:11:24;10.60;99.90
2012;DHT22;1009;51.436;6.972;2023-04-01T13:14:18;10.70;99.90
2012;DHT22;1009;51.436;6.972;2023-04-01T13:16:54;10.50;99.90
2012;DHT22;1009;51.436;6.972;2023-04-01T13:19:29;10.60;99.90
2012;DHT22;1009;51.436;6.972;2023-04-01T13:22:04;10.60;99.90
2012;DHT22;1009;51.436;6.972;2023-04-01T13:24:47;10.70;99.90
2012;DHT22;1009;51.436;6.972;2023-04-01T13:27:19;10.60;99.90
2012;DHT22;1009;51.436;6.972;2023-04-01T13:30:04;10.60;99.90
2012;DHT22;1009;51.436;6.972;2023-04-01T13:32:43;10.60;99.90
2012;DHT22;1009;51.436;6.972;2023-04-01T13:35:31;10.60;99.90
2012;DHT22;1009;51.436;6.972;2023-04-01T13:38:30;10.60;99.90
2012;DHT22;1009;51.436;6.972;2023-04-01T13:41:04;10.60;99.90
2012;DHT22;1009;51.436;6.972;2023-04-01T13:43:35;10.60;99.90
2012;DHT22;1009;51.436;6.972;2023-04-01T13:49:19;10.70;99.90
2012;DHT22;1009;51.436;6.972;2023-04-01T13:52:08;10.60;99.90
2012;DHT22;1009;51.436;6.972;2023-04-01T13:54:57;10.60;99.90
2012;DHT22;1009;51.436;6.972;2023-04-01T13:57:48;10.50;99.90
2012;DHT22;1009;51.436;6.972;2023-04-01T14:00:31;10.50;99.90
2012;DHT22;1009;51.436;6.972;2023-04-01T14:03:27;10.40;99.90
2012;DHT22;1009;51.436;6.972;2023-04-01T14:06:18;10.50;99.90
2012;DHT22;1009;51.436;6.972;2023-04-01T14:09:05;10.50;99.90
2012;DHT22;1009;51.436;6.972;2023-04-01T14:11:41;10.50;99.90
2012;DHT22;1009;51.436;6.972;2023-04-01T14:14:18;10.60;99.90
2012;DHT22;1009;51.436;6.972;2023-04-01T14:17:05;10.50;99.90
2012;DHT22;1009;51.436;6.972;2023-04-01T14:19:56;10.60;99.90
2012;DHT22;1009;51.436;6.972;2023-04-01T14:22:38;10.60;99.90
2012;DHT22;1009;51.436;6.972;2023-04-01T14:25:22;10.60;99.90
2012;DHT22;1009;51.436;6.972;2023-04-01T14:27:59;10.50;99.90
2012;DHT22;1009;51.436;6.972;2023-04-01T14:30:43;10.50;99.90
2012;DHT22;1009;51.436;6.972;2023-04-01T14:33:31;10.50;99.90
2012;DHT22;1009;51.436;6.972;2023-04-01T14:36:21;10.50;99.90
2012;DHT22;1009;51.436;6.972;2023-04-01T14:39:04;10.50;99.90
2012;DHT22;1009;51.436;6.972;2023-04-01T14:41:43;10.50;99.90
2012;DHT22;1009;51.436;6.972;2023-04-01T14:44:42;10.50;99.90
2012;DHT22;1009;51.436;6.972;2023-04-01T14:47:44;10.60;99.90
2012;DHT22;1009;51.436;6.972;2023-04-01T14:50:14;10.50;99.90
2012;DHT22;1009;51.436;6.972;2023-04-01T14:52:47;10.50;99.90
2012;DHT22;1009;51.436;6.972;2023-04-01T14:55:27;10.60;99.90
2012;DHT22;1009;51.436;6.972;2023-04-01T14:58:00;10.60;99.90
2012;DHT22;1009;51.436;6.972;2023-04-01T15:00:46;10.60;99.90
2012;DHT22;1009;51.436;6.972;2023-04-01T15:03:20;10.70;99.90
2012;DHT22;1009;51.436;6.972;2023-04-01T15:05:53;10.70;99.90
2012;DHT22;1009;51.436;6.972;2023-04-01T15:08:23;10.70;99.90
2012;DHT22;1009;51.436;6.972;2023-04-01T15:11:23;10.80;99.90
2012;DHT22;1009;51.436;6.972;2023-04-01T15:14:22;10.70;99.90
2012;DHT22;1009;51.436;6.972;2023-04-01T15:17:30;10.80;99.90
2012;DHT22;1009;51.436;6.972;2023-04-01T15:20:14;10.80;99.90
2012;DHT22;1009;51.436;6.972;2023-04-01T15:22:57;10.80;99.90
2012;DHT22;1009;51.436;6.972;2023-04-01T15:25:39;10.80;99.90
2012;DHT22;1009;51.436;6.972;2023-04-01T15:28:19;10.70;99.90
2012;DHT22;1009;51.436;6.972;2023-04-01T15:31:01;10.70;99.90
2012;DHT22;1009;51.436;6.972;2023-04-01T15:33:52;10.70;99.90
2012;DHT22;1009;51.436;6.972;2023-04-01T15:36:30;10.70;99.90
2012;DHT22;1009;51.436;6.972;2023-04-01T15:39:09;10.70;99.90
2012;DHT22;1009;51.436;6.972;2023-04-01T15:41:46;10.60;99.90
2012;DHT22;1009;51.436;6.972;2023-04-01T15:44:44;10.60;99.90
2012;DHT22;1009;51.436;6.972;2023-04-01T15:47:35;10.60;99.90
2012;DHT22;1009;51.436;6.972;2023-04-01T15:50:34;10.50;99.90
2012;DHT22;1009;51.436;6.972;2023-04-01T15:53:18;10.70;99.90
2012;DHT22;1009;51.436;6.972;2023-04-01T15:55:49;10.60;99.90
2012;DHT22;1009;51.436;6.972;2023-04-01T15:58:38;10.40;99.90
2012;DHT22;1009;51.436;6.972;2023-04-01T16:01:20;10.30;99.90
2012;DHT22;1009;51.436;6.972;2023-04-01T16:03:54;10.40;99.90
2012;DHT22;1009;51.436;6.972;2023-04-01T16:06:42;10.40;99.90
2012;DHT22;1009;51.436;6.972;2023-04-01T16:09:23;10.50;99.90
2012;DHT22;1009;51.436;6.972;2023-04-01T16:11:57;10.60;99.90
2012;DHT22;1009;51.436;6.972;2023-04-01T16:14:35;10.50;99.90
2012;DHT22;1009;51.436;6.972;2023-04-01T16:17:21;10.50;99.90
2012;DHT22;1009;51.436;6.972;2023-04-01T16:19:56;10.50;99.90
2012;DHT22;1009;51.436;6.972;2023-04-01T16:22:32;10.50;99.90
2012;DHT22;1009;51.436;6.972;2023-04-01T16:25:17;10.60;99.90
2012;DHT22;1009;51.436;6.972;2023-04-01T16:27:51;10.60;99.90
2012;DHT22;1009;51.436;6.972;2023-04-01T16:30:28;10.60;99.90
2012;DHT22;1009;51.436;6.972;2023-04-01T16:33:03;10.60;99.90
2012;DHT22;1009;51.436;6.972;2023-04-01T16:35:39;10.50;99.90
2012;DHT22;1009;51.436;6.972;2023-04-01T16:38:13;10.60;99.90
2012;DHT22;1009;51.436;6.972;2023-04-01T16:40:46;10.60;99.90
2012;DHT22;1009;51.436;6.972;2023-04-01T16:43:20;10.50;99.90
2012;DHT22;1009;51.436;6.972;2023-04-01T16:45:57;10.50;99.90
2012;DHT22;1009;51.436;6.972;2023-04-01T16:48:35;10.50;99.90
2012;DHT22;1009;51.436;6.972;2023-04-01T16:51:15;10.40;99.90
2012;DHT22;1009;51.436;6.972;2023-04-01T16:53:45;10.50;99.90
2012;DHT22;1009;51.436;6.972;2023-04-01T16:56:20;10.50;99.90
2012;DHT22;1009;51.436;6.972;2023-04-01T16:58:59;10.40;99.90
2012;DHT22;1009;51.436;6.972;2023-04-01T17:01:30;10.50;99.90
2012;DHT22;1009;51.436;6.972;2023-04-01T17:04:07;10.50;99.90
2012;DHT22;1009;51.436;6.972;2023-04-01T17:06:43;10.40;99.90
2012;DHT22;1009;51.436;6.972;2023-04-01T17:09:29;10.50;99.90
2012;DHT22;1009;51.436;6.972;2023-04-01T17:12:01;10.50;99.90
2012;DHT22;1009;51.436;6.972;2023-04-01T17:14:37;10.50;99.90
2012;DHT22;1009;51.436;6.972;2023-04-01T17:17:19;10.50;99.90
2012;DHT22;1009;51.436;6.972;2023-04-01T17:20:05;10.50;99.90
2012;DHT22;1009;51.436;6.972;2023-04-01T17:22:39;10.60;99.90
2012;DHT22;1009;51.436;6.972;2023-04-01T17:25:31;10.50;99.90
2012;DHT22;1009;51.436;6.972;2023-04-01T17:28:10;10.50;99.90
2012;DHT22;1009;51.436;6.972;2023-04-01T17:30:50;10.50;99.90
2012;DHT22;1009;51.436;6.972;2023-04-01T17:33:34;10.50;99.90
2012;DHT22;1009;51.436;6.972;2023-04-01T17:36:12;10.60;99.90
2012;DHT22;1009;51.436;6.972;2023-04-01T17:38:54;10.60;99.90
2012;DHT22;1009;51.436;6.972;2023-04-01T17:41:32;10.60;99.90
2012;DHT22;1009;51.436;6.972;2023-04-01T17:44:15;10.60;99.90
2012;DHT22;1009;51.436;6.972;2023-04-01T17:49:35;10.60;99.90
2012;DHT22;1009;51.436;6.972;2023-04-01T17:52:10;10.50;99.90
2012;DHT22;1009;51.436;6.972;2023-04-01T17:54:45;10.40;99.90
2012;DHT22;1009;51.436;6.972;2023-04-01T17:57:30;10.40;99.90
2012;DHT22;1009;51.436;6.972;2023-04-01T18:00:02;10.40;99.90
2012;DHT22;1009;51.436;6.972;2023-04-01T18:02:37;10.40;99.90
2012;DHT22;1009;51.436;6.972;2023-04-01T18:05:30;10.40;99.90
2012;DHT22;1009;51.436;6.972;2023-04-01T18:08:10;10.40;99.90
2012;DHT22;1009;51.436;6.972;2023-04-01T18:10:47;10.40;99.90
2012;DHT22;1009;51.436;6.972;2023-04-01T18:16:24;10.30;99.90
2012;DHT22;1009;51.436;6.972;2023-04-01T18:18:59;10.30;99.90
2012;DHT22;1009;51.436;6.972;2023-04-01T18:21:34;10.40;99.90
2012;DHT22;1009;51.436;6.972;2023-04-01T18:24:13;10.40;99.90